Time;durP1;ratioP1;P1;durP2;ratioP2;P2;SDS_P1;SDS_P2;PMS_P1;PMS_P2;Temp;Humidity;BMP_temperature;BMP_pressure;BME280_temperature;BME280_humidity;BME280_pressure;Samples;Min_cycle;Max_cycle;Signal;HPM_P1;HPM_P2
2022/07/20 00:02:02;;;;;;;6.47;2.70;;;;;;;15.19;88.56;98559.44;1816530;78;21491;-59
2022/07/20 00:04:29;;;;;;;7.55;3.55;;;;;;;15.19;88.79;98559.44;1803908;78;20917;-59
2022/07/20 00:06:56;;;;;;;4.30;3.30;;;;;;;15.17;89.00;98560.87;1815728;79;20934;-59
2022/07/20 00:12:09;;;;;;;3.67;2.90;;;;;;;15.14;89.04;98552.03;1816821;78;21174;-57
2022/07/20 00:14:37;;;;;;;4.15;2.70;;;;;;;15.08;88.92;98556.19;1799503;78;20897;-58
2022/07/20 00:17:04;;;;;;;4.85;3.05;;;;;;;15.02;89.00;98550.68;1810257;78;20862;-57
2022/07/20 00:19:31;;;;;;;5.60;3.15;;;;;;;14.98;89.15;98553.72;1815723;79;20926;-57
2022/07/20 00:21:58;;;;;;;3.83;3.00;;;;;;;14.94;89.30;98546.00;1803804;78;20976;-57
2022/07/20 00:24:25;;;;;;;4.28;3.02;;;;;;;14.94;89.39;98552.74;1810215;78;21054;-57
2022/07/20 00:26:51;;;;;;;3.37;2.70;;;;;;;14.91;89.42;98541.20;1815932;79;20989;-57
2022/07/20 00:29:18;;;;;;;4.92;2.92;;;;;;;14.90;89.50;98540.17;1805247;78;21088;-58
2022/07/20 00:31:45;;;;;;;7.17;2.80;;;;;;;14.91;89.54;98539.86;1809969;78;20921;-57
2022/07/20 00:34:11;;;;;;;6.10;3.00;;;;;;;14.89;89.67;98538.02;1807059;78;20933;-57
2022/07/20 00:36:37;;;;;;;4.08;3.00;;;;;;;14.87;89.78;98535.38;1815024;78;21233;-58
2022/07/20 00:49:32;;;;;;;5.83;2.80;;;;;;;14.88;90.35;98532.39;1785900;78;21139;-57
2022/07/20 00:51:58;;;;;;;3.37;2.45;;;;;;;14.89;90.28;98532.63;1815382;78;21630;-57
2022/07/20 00:54:25;;;;;;;6.37;3.10;;;;;;;14.88;90.15;98524.30;1818755;78;20901;-57
2022/07/20 00:56:51;;;;;;;4.10;2.70;;;;;;;14.85;90.05;98520.86;1805440;78;21095;-57
2022/07/20 00:59:18;;;;;;;3.52;2.62;;;;;;;14.83;89.97;98520.38;1812755;78;20935;-57
2022/07/20 01:01:45;;;;;;;3.98;2.80;;;;;;;14.81;90.12;98520.43;1794204;78;21096;-57
2022/07/20 01:04:11;;;;;;;5.83;2.85;;;;;;;14.80;90.19;98514.78;1809593;78;20874;-57
2022/07/20 01:06:38;;;;;;;5.72;3.10;;;;;;;14.78;90.30;98519.14;1815861;79;21015;-57
2022/07/20 01:09:04;;;;;;;4.05;2.85;;;;;;;14.78;90.17;98513.74;1809885;78;21021;-57
2022/07/20 01:11:33;;;;;;;4.65;2.40;;;;;;;14.77;90.14;98514.83;1794647;78;21436;-57
2022/07/20 01:14:03;;;;;;;4.47;2.77;;;;;;;14.76;90.09;98517.30;1814112;78;21257;-57
2022/07/20 01:16:30;;;;;;;3.80;2.70;;;;;;;14.75;90.10;98517.04;1810649;78;20976;-57
2022/07/20 01:18:57;;;;;;;4.95;2.70;;;;;;;14.75;90.03;98517.04;1809750;78;21503;-57
2022/07/20 01:21:23;;;;;;;4.35;2.58;;;;;;;14.75;90.01;98513.54;1816909;78;20843;-57
2022/07/20 01:23:50;;;;;;;6.45;2.85;;;;;;;14.75;90.01;98509.49;1804588;78;20945;-57
2022/07/20 01:26:19;;;;;;;6.28;2.83;;;;;;;14.74;89.93;98511.42;1806339;78;21861;-57
2022/07/20 01:28:46;;;;;;;4.40;2.70;;;;;;;14.71;89.87;98503.93;1812331;78;20917;-58
2022/07/20 01:31:12;;;;;;;5.65;2.87;;;;;;;14.69;89.93;98503.44;1813381;78;21401;-58
2022/07/20 01:33:39;;;;;;;7.30;3.27;;;;;;;14.68;90.04;98500.48;1815970;79;21025;-58
2022/07/20 01:36:07;;;;;;;5.37;2.70;;;;;;;14.65;90.09;98501.08;1811777;78;20886;-58
2022/07/20 01:38:34;;;;;;;3.98;2.92;;;;;;;14.64;90.11;98496.01;1803346;78;21101;-58
2022/07/20 01:41:01;;;;;;;5.45;2.60;;;;;;;14.61;90.15;98492.02;1815732;79;20957;-58
2022/07/20 01:43:28;;;;;;;4.60;3.00;;;;;;;14.54;90.16;98488.94;1815900;78;21077;-58
2022/07/20 01:45:54;;;;;;;4.67;2.67;;;;;;;14.49;90.41;98485.00;1809792;78;20890;-58
2022/07/20 01:48:22;;;;;;;6.22;2.90;;;;;;;14.46;90.63;98486.95;1815861;79;21274;-58
2022/07/20 01:50:49;;;;;;;9.83;2.98;;;;;;;14.41;90.87;98487.09;1815770;78;21280;-58
2022/07/20 01:53:15;;;;;;;2.92;2.62;;;;;;;14.43;91.02;98490.27;1815787;78;20850;-58
2022/07/20 01:55:42;;;;;;;4.80;2.70;;;;;;;14.45;91.15;98490.77;1806034;78;20926;-57
2022/07/20 01:58:08;;;;;;;3.25;2.70;;;;;;;14.45;91.15;98485.38;1804531;78;21526;-57
2022/07/20 02:00:34;;;;;;;3.00;2.37;;;;;;;14.42;91.22;98476.54;1818928;78;20885;-58
2022/07/20 02:03:01;;;;;;;3.80;2.87;;;;;;;14.42;91.29;98480.58;1809798;78;21112;-58
2022/07/20 02:05:29;;;;;;;5.25;2.98;;;;;;;14.42;91.34;98477.89;1818836;78;21008;-58
2022/07/20 02:07:56;;;;;;;3.83;2.37;;;;;;;14.43;91.28;98479.49;1815761;79;20866;-58
2022/07/20 02:10:23;;;;;;;3.72;2.60;;;;;;;14.42;91.29;98477.89;1795938;78;20925;-58
2022/07/20 02:12:51;;;;;;;5.80;2.60;;;;;;;14.40;91.35;98473.36;1807605;78;21016;-58
2022/07/20 02:18:09;;;;;;;3.95;2.77;;;;;;;14.39;91.54;98475.79;1799296;78;20917;-58
2022/07/20 02:20:36;;;;;;;3.33;2.65;;;;;;;14.39;91.66;98478.48;1800857;78;20996;-58
2022/07/20 02:23:05;;;;;;;3.62;2.60;;;;;;;14.41;91.71;98478.20;1800591;78;21005;-58
2022/07/20 02:25:31;;;;;;;4.53;2.85;;;;;;;14.41;91.69;98477.66;1816818;78;21468;-58
2022/07/20 02:27:58;;;;;;;3.05;2.37;;;;;;;14.41;91.72;98479.00;1807940;78;22154;-58
2022/07/20 02:30:25;;;;;;;4.47;2.65;;;;;;;14.44;91.70;98481.07;1809106;78;20897;-58
2022/07/20 02:32:51;;;;;;;4.70;3.00;;;;;;;14.43;91.76;98479.49;1811873;78;20902;-58
2022/07/20 02:35:18;;;;;;;3.60;2.72;;;;;;;14.44;91.84;98478.38;1815702;79;20944;-58
2022/07/20 02:37:44;;;;;;;4.70;3.12;;;;;;;14.46;91.92;98476.17;1815764;79;20898;-59
2022/07/20 02:40:11;;;;;;;3.83;2.75;;;;;;;14.48;91.97;98481.28;1813834;78;21190;-58
2022/07/20 02:42:37;;;;;;;6.65;2.85;;;;;;;14.49;91.95;98482.31;1812738;78;20901;-58
2022/07/20 02:45:06;;;;;;;5.20;2.90;;;;;;;14.47;91.99;98481.82;1808392;78;20874;-58
2022/07/20 02:47:42;;;;;;;3.67;2.62;;;;;;;14.47;92.12;98487.21;1814027;78;20886;-58
2022/07/20 02:50:09;;;;;;;5.15;3.10;;;;;;;14.49;92.11;98481.51;1811618;78;20921;-58
2022/07/20 02:52:36;;;;;;;3.83;2.67;;;;;;;14.50;92.11;98479.88;1809447;78;21214;-58
2022/07/20 02:55:03;;;;;;;4.70;2.85;;;;;;;14.51;92.11;98484.15;1806326;78;20977;-58
2022/07/20 02:57:29;;;;;;;3.50;2.72;;;;;;;14.52;92.08;98479.02;1799847;78;21048;-58
2022/07/20 02:59:56;;;;;;;3.30;2.80;;;;;;;14.57;92.07;98487.00;1804233;78;20965;-58
2022/07/20 03:02:23;;;;;;;3.40;2.77;;;;;;;14.58;92.05;98482.41;1813959;78;20913;-58
2022/07/20 03:04:50;;;;;;;4.50;2.95;;;;;;;14.61;91.99;98489.33;1810644;78;21110;-58
2022/07/20 03:07:17;;;;;;;4.78;2.80;;;;;;;14.64;91.88;98487.38;1815696;79;20831;-58
2022/07/20 03:09:44;;;;;;;4.97;3.45;;;;;;;14.67;91.77;98493.52;1809359;78;20897;-58
2022/07/20 03:12:11;;;;;;;3.75;3.25;;;;;;;14.67;91.70;98489.47;1815726;79;20937;-58
2022/07/20 03:14:37;;;;;;;4.53;2.92;;;;;;;14.67;91.69;98490.82;1815718;79;20897;-58
2022/07/20 03:17:03;;;;;;;5.87;3.08;;;;;;;14.69;91.77;98488.61;1809639;78;21272;-58
2022/07/20 03:19:30;;;;;;;9.05;3.00;;;;;;;14.73;91.76;98496.33;1820044;78;20913;-58
2022/07/20 03:21:57;;;;;;;4.62;3.10;;;;;;;14.77;91.71;98493.27;1810528;78;20826;-58
2022/07/20 03:24:23;;;;;;;5.08;2.70;;;;;;;14.79;91.64;98495.09;1806889;78;20898;-58
2022/07/20 03:26:50;;;;;;;3.92;3.00;;;;;;;14.80;91.57;98489.97;1804660;78;20972;-58
2022/07/20 03:29:17;;;;;;;3.75;2.85;;;;;;;14.83;91.61;98491.25;1811205;78;21103;-58
2022/07/20 03:31:43;;;;;;;4.40;2.70;;;;;;;14.87;91.55;98488.98;1813388;78;21361;-58
2022/07/20 03:34:09;;;;;;;5.25;2.80;;;;;;;14.91;91.53;98490.50;1797737;78;20903;-58
2022/07/20 03:36:37;;;;;;;6.42;2.92;;;;;;;14.95;91.35;98495.02;1801523;78;20878;-58
2022/07/20 03:39:04;;;;;;;4.72;2.92;;;;;;;15.00;91.10;98482.72;1813006;78;20877;-58
2022/07/20 03:41:30;;;;;;;7.10;3.00;;;;;;;15.04;90.86;98486.97;1812912;78;22014;-58
2022/07/20 03:43:57;;;;;;;3.58;2.67;;;;;;;15.07;90.72;98489.84;1815617;79;20861;-58
2022/07/20 03:46:24;;;;;;;4.65;2.77;;;;;;;15.12;90.62;98486.22;1809448;79;20917;-58
2022/07/20 03:48:50;;;;;;;3.30;2.70;;;;;;;15.18;90.43;98490.95;1804145;78;20924;-59
2022/07/20 03:51:17;;;;;;;6.08;3.08;;;;;;;15.23;90.33;98494.88;1815910;78;20846;-58
2022/07/20 03:53:43;;;;;;;4.53;3.08;;;;;;;15.28;90.17;98494.75;1796987;78;21099;-58
2022/07/20 03:56:10;;;;;;;7.83;2.87;;;;;;;15.34;90.04;98497.55;1816340;78;20918;-58
2022/07/20 03:58:36;;;;;;;3.98;3.00;;;;;;;15.39;89.87;98500.13;1814883;78;20921;-58
2022/07/20 04:01:03;;;;;;;5.30;2.92;;;;;;;15.44;89.77;98504.05;1811864;78;21380;-58
2022/07/20 04:03:29;;;;;;;4.92;2.75;;;;;;;15.51;89.70;98497.69;1812381;78;20920;-58
2022/07/20 04:05:56;;;;;;;4.53;2.80;;;;;;;15.57;88.11;98492.38;1794633;78;21102;-58
2022/07/20 04:08:23;;;;;;;5.50;2.95;;;;;;;15.76;88.50;98494.88;1821513;78;20964;-58
2022/07/20 04:10:49;;;;;;;7.58;3.27;;;;;;;15.92;87.90;98498.17;1819336;78;20866;-59
2022/07/20 04:13:16;;;;;;;8.83;3.10;;;;;;;16.04;87.70;98488.16;1804324;78;21408;-59
2022/07/20 04:15:42;;;;;;;6.10;2.80;;;;;;;16.12;86.86;98492.22;1809919;78;21409;-59
2022/07/20 04:18:09;;;;;;;4.08;2.80;;;;;;;16.27;86.86;98493.11;1817717;78;21217;-58
2022/07/20 04:20:35;;;;;;;3.02;2.62;;;;;;;16.40;85.85;98490.05;1800172;78;20958;-58
2022/07/20 04:23:02;;;;;;;3.45;2.45;;;;;;;16.55;85.03;98482.07;1811130;78;20917;-58
2022/07/20 04:25:30;;;;;;;9.95;2.37;;;;;;;16.71;84.28;98485.89;1810503;78;20933;-58
2022/07/20 04:27:58;;;;;;;6.40;2.50;;;;;;;16.90;82.85;98491.78;1806634;78;20877;-58
2022/07/20 04:30:26;;;;;;;4.92;2.72;;;;;;;17.11;82.21;98495.44;1817448;78;22101;-58
2022/07/20 04:32:53;;;;;;;3.10;2.30;;;;;;;17.28;80.69;98487.84;1812875;78;20866;-58
2022/07/20 04:35:20;;;;;;;3.77;2.60;;;;;;;17.52;78.90;98487.56;1808472;78;20961;-58
2022/07/20 04:37:46;;;;;;;3.35;2.77;;;;;;;17.73;77.30;98482.26;1806868;78;20889;-59
2022/07/20 04:40:13;;;;;;;3.87;2.70;;;;;;;17.93;76.62;98478.81;1819420;78;20918;-58
2022/07/20 04:42:40;;;;;;;5.17;2.85;;;;;;;18.08;75.80;98480.19;1798777;78;21421;-59
2022/07/20 04:45:08;;;;;;;10.70;3.60;;;;;;;18.19;75.64;98470.55;1809587;78;20870;-59
2022/07/20 04:47:35;;;;;;;6.90;3.37;;;;;;;18.26;76.46;98477.59;1809585;78;21013;-58
2022/07/20 04:50:02;;;;;;;5.85;2.90;;;;;;;18.28;76.53;98480.77;1806365;78;20957;-58
2022/07/20 04:52:29;;;;;;;4.40;3.05;;;;;;;18.27;76.11;98467.00;1807424;78;21040;-58
2022/07/20 04:54:55;;;;;;;5.25;2.55;;;;;;;18.33;76.72;98477.88;1811678;78;21205;-58
2022/07/20 04:57:22;;;;;;;4.40;2.42;;;;;;;18.36;74.85;98467.73;1809656;78;20902;-59
2022/07/20 04:59:48;;;;;;;4.25;2.27;;;;;;;18.46;73.75;98472.81;1806059;78;21499;-58
2022/07/20 05:02:14;;;;;;;3.30;2.20;;;;;;;18.61;72.56;98464.06;1810936;78;21440;-58
2022/07/20 05:04:41;;;;;;;3.42;2.12;;;;;;;18.77;71.14;98466.41;1815733;78;20937;-59
2022/07/20 05:07:08;;;;;;;3.95;2.67;;;;;;;18.92;70.39;98471.24;1803210;78;21101;-58
2022/07/20 05:09:34;;;;;;;4.20;2.22;;;;;;;19.05;69.75;98467.44;1809248;79;20866;-58
2022/07/20 05:12:01;;;;;;;4.12;2.50;;;;;;;19.18;69.08;98483.22;1815891;78;21499;-59
2022/07/20 05:14:27;;;;;;;5.70;2.20;;;;;;;19.30;67.58;98470.24;1815883;79;20898;-59
2022/07/20 05:16:55;;;;;;;6.55;2.25;;;;;;;19.42;67.25;98468.95;1815890;79;20889;-59
2022/07/20 05:19:22;;;;;;;4.37;2.45;;;;;;;19.51;65.50;98467.73;1801353;78;21053;-59
2022/07/20 05:21:48;;;;;;;3.47;1.95;;;;;;;19.63;65.27;98470.47;1812058;78;20929;-59
2022/07/20 05:24:15;;;;;;;4.35;2.42;;;;;;;19.73;64.42;98470.59;1809630;78;20905;-59
2022/07/20 05:26:42;;;;;;;3.60;2.20;;;;;;;19.86;64.90;98473.54;1815942;79;20918;-58
2022/07/20 05:29:08;;;;;;;4.00;2.50;;;;;;;19.94;64.11;98469.93;1815975;79;20973;-59
2022/07/20 05:31:36;;;;;;;4.17;2.33;;;;;;;20.03;62.60;98473.33;1815925;79;20830;-58
2022/07/20 05:34:03;;;;;;;4.42;2.15;;;;;;;20.17;63.25;98469.70;1806603;78;20866;-58
2022/07/20 05:36:29;;;;;;;2.50;2.17;;;;;;;20.27;62.44;98470.63;1810664;78;20889;-59
2022/07/20 05:38:56;;;;;;;5.40;2.10;;;;;;;20.39;62.71;98465.18;1812944;79;20897;-59
2022/07/20 05:41:22;;;;;;;3.25;1.98;;;;;;;20.50;63.00;98461.97;1795459;78;20978;-58
2022/07/20 05:43:49;;;;;;;5.25;1.90;;;;;;;20.57;61.15;98459.45;1806233;78;21096;-59
2022/07/20 05:46:16;;;;;;;2.65;1.80;;;;;;;20.65;60.24;98466.70;1813724;78;20873;-59
2022/07/20 05:48:42;;;;;;;4.97;2.10;;;;;;;20.73;60.37;98463.03;1807087;78;20936;-58
2022/07/20 05:51:09;;;;;;;2.95;2.05;;;;;;;20.81;59.85;98459.39;1799345;78;20941;-58
2022/07/20 05:53:37;;;;;;;3.87;2.17;;;;;;;20.87;58.60;98459.36;1817745;78;20885;-58
2022/07/20 05:56:05;;;;;;;4.97;2.60;;;;;;;20.92;58.95;98449.59;1815786;78;21225;-58
2022/07/20 05:58:31;;;;;;;2.77;1.98;;;;;;;20.95;58.28;98450.27;1823859;77;20920;-56
2022/07/20 06:01:00;;;;;;;6.33;2.10;;;;;;;20.99;59.51;98449.79;1805308;79;20955;-58
2022/07/20 06:03:27;;;;;;;4.15;2.17;;;;;;;21.02;59.66;98446.37;1814422;79;20925;-59
2022/07/20 06:05:53;;;;;;;5.53;2.10;;;;;;;21.06;59.77;98444.56;1809903;78;20966;-59
2022/07/20 06:08:21;;;;;;;4.08;2.25;;;;;;;21.09;58.40;98441.95;1815385;78;20911;-60
2022/07/20 06:10:48;;;;;;;4.75;2.10;;;;;;;21.18;58.23;98447.23;1812266;77;21010;-57
2022/07/20 06:13:15;;;;;;;6.72;2.12;;;;;;;21.23;57.88;98446.98;1816788;78;21328;-60
2022/07/20 06:15:42;;;;;;;3.58;1.95;;;;;;;21.30;57.61;98445.81;1813731;78;20968;-60
2022/07/20 06:18:09;;;;;;;2.27;1.85;;;;;;;21.41;58.22;98437.34;1800135;78;20930;-62
2022/07/20 06:20:35;;;;;;;4.22;2.10;;;;;;;21.50;57.90;98446.16;1809645;78;21105;-62
2022/07/20 06:23:02;;;;;;;3.75;2.08;;;;;;;21.57;58.33;98443.63;1818948;78;20966;-62
2022/07/20 06:25:30;;;;;;;3.90;2.35;;;;;;;21.65;57.84;98444.00;1818136;76;20979;-62
2022/07/20 06:27:58;;;;;;;4.75;2.12;;;;;;;21.72;57.56;98445.54;1814248;77;21343;-62
2022/07/20 06:30:25;;;;;;;3.77;2.00;;;;;;;21.76;57.99;98445.64;1820021;77;20943;-62
2022/07/20 06:32:51;;;;;;;5.33;2.08;;;;;;;21.78;58.80;98446.08;1760877;80;21052;-62
2022/07/20 06:35:18;;;;;;;4.58;2.10;;;;;;;21.77;59.21;98445.28;1762128;80;21018;-58
2022/07/20 06:37:45;;;;;;;5.33;2.72;;;;;;;21.79;59.79;98440.27;1750373;81;20940;-60
2022/07/20 06:40:12;;;;;;;3.77;2.22;;;;;;;21.85;60.02;98437.30;1739271;80;20987;-59
2022/07/20 06:42:39;;;;;;;4.33;2.20;;;;;;;21.89;60.32;98435.45;1761739;80;20885;-59
2022/07/20 06:45:12;;;;;;;4.45;2.60;;;;;;;21.93;59.91;98437.70;1783081;78;21232;-60
2022/07/20 06:47:39;;;;;;;5.62;2.02;;;;;;;21.97;58.87;98437.21;1757206;80;20940;-60
2022/07/20 06:50:07;;;;;;;5.08;2.22;;;;;;;22.06;59.64;98433.72;1755148;80;20860;-60
2022/07/20 06:52:34;;;;;;;5.53;2.40;;;;;;;22.13;60.12;98435.24;1729796;80;21083;-61
2022/07/20 06:55:02;;;;;;;5.78;2.40;;;;;;;22.16;59.41;98429.85;1734725;81;20971;-62
2022/07/20 06:57:29;;;;;;;5.12;2.20;;;;;;;22.23;59.99;98430.61;1793383;77;21121;-61
2022/07/20 06:59:55;;;;;;;6.28;2.45;;;;;;;22.29;60.40;98425.08;1742068;80;21553;-62
2022/07/20 07:02:22;;;;;;;6.33;2.75;;;;;;;22.32;60.49;98421.08;1818187;78;20958;-61
2022/07/20 07:04:48;;;;;;;3.27;2.45;;;;;;;22.41;59.54;98414.05;1750303;80;21019;-60
2022/07/20 07:07:16;;;;;;;6.45;2.42;;;;;;;22.48;59.40;98411.47;1741895;81;20995;-61
2022/07/20 07:09:43;;;;;;;4.65;2.10;;;;;;;22.57;59.49;98403.06;1815461;77;21225;-61
2022/07/20 07:12:09;;;;;;;6.35;2.12;;;;;;;22.66;58.43;98405.83;1805835;77;20923;-63
2022/07/20 07:14:43;;;;;;;3.20;2.20;;;;;;;22.75;58.53;98407.77;1803679;77;20924;-62
2022/07/20 07:17:09;;;;;;;6.62;2.35;;;;;;;22.81;58.32;98399.52;1793311;78;20928;-61
2022/07/20 07:19:39;;;;;;;4.55;2.12;;;;;;;22.89;57.94;98396.35;1808116;77;20910;-62
2022/07/20 07:22:06;;;;;;;4.30;2.30;;;;;;;22.95;56.99;98398.42;1754031;80;21352;-65
2022/07/20 07:24:32;;;;;;;6.05;2.30;;;;;;;23.03;56.51;98394.66;1726886;80;21395;-63
2022/07/20 07:27:00;;;;;;;3.62;2.50;;;;;;;23.12;55.81;98389.78;1735871;81;20959;-63
2022/07/20 07:29:28;;;;;;;5.92;2.30;;;;;;;23.21;56.84;98383.27;1751930;80;20972;-65
2022/07/20 07:32:01;;;;;;;4.00;2.22;;;;;;;23.30;54.84;98389.28;1751348;80;21427;-63
2022/07/20 07:34:29;;;;;;;3.95;2.22;;;;;;;23.39;55.48;98385.19;1806302;77;21987;-63
2022/07/20 07:36:55;;;;;;;4.60;2.30;;;;;;;23.50;54.50;98386.19;1798515;78;20968;-62
2022/07/20 07:39:22;;;;;;;4.67;2.35;;;;;;;23.58;54.68;98384.33;1813121;77;20995;-63
2022/07/20 07:41:49;;;;;;;5.50;2.20;;;;;;;23.66;55.12;98376.47;1807058;78;20985;-62
2022/07/20 07:44:15;;;;;;;6.12;2.42;;;;;;;23.73;54.53;98377.37;1796610;78;21023;-61
2022/07/20 07:46:42;;;;;;;3.58;2.42;;;;;;;23.81;54.21;98383.75;1769785;79;21102;-62
2022/07/20 07:49:09;;;;;;;7.70;3.05;;;;;;;23.85;51.88;98376.38;1789969;77;20916;-63
2022/07/20 07:51:38;;;;;;;3.77;2.20;;;;;;;23.90;51.57;98370.60;1806545;77;21475;-61
2022/07/20 07:54:04;;;;;;;2.70;1.95;;;;;;;23.98;52.98;98365.42;1791658;77;20920;-62
2022/07/20 07:56:32;;;;;;;4.45;2.17;;;;;;;24.06;50.78;98363.05;1744807;80;21028;-62
2022/07/20 07:58:59;;;;;;;6.17;2.50;;;;;;;24.11;51.21;98364.09;1751353;80;21915;-62
2022/07/20 08:01:26;;;;;;;6.08;2.40;;;;;;;24.18;51.39;98357.92;1744981;81;20904;-61
2022/07/20 08:03:53;;;;;;;6.05;2.37;;;;;;;24.25;51.41;98362.92;1760876;80;21196;-61
2022/07/20 08:06:19;;;;;;;5.40;2.60;;;;;;;24.32;51.25;98354.80;1772534;80;20940;-62
2022/07/20 08:08:46;;;;;;;3.42;2.12;;;;;;;24.39;50.71;98357.63;1759190;79;20955;-62
2022/07/20 08:11:13;;;;;;;7.53;2.33;;;;;;;24.44;49.48;98357.31;1740935;80;21705;-62
2022/07/20 08:13:41;;;;;;;6.00;2.20;;;;;;;24.50;49.34;98352.27;1749172;80;20937;-63
2022/07/20 08:16:08;;;;;;;6.22;2.30;;;;;;;24.54;48.84;98357.81;1746461;81;20972;-62
2022/07/20 08:18:35;;;;;;;4.87;1.87;;;;;;;24.61;49.19;98353.78;1777339;79;20920;-62
2022/07/20 08:21:01;;;;;;;5.10;2.70;;;;;;;24.70;49.74;98350.17;1741577;79;20898;-62
2022/07/20 08:23:29;;;;;;;6.37;2.60;;;;;;;24.78;49.48;98346.36;1777880;79;21118;-64
2022/07/20 08:25:55;;;;;;;5.05;2.40;;;;;;;24.87;48.57;98350.98;1771981;79;20919;-63
2022/07/20 08:28:23;;;;;;;5.05;2.20;;;;;;;24.93;50.08;98349.47;1765150;79;21048;-63
2022/07/20 08:30:51;;;;;;;4.03;2.25;;;;;;;25.02;48.83;98345.84;1737593;81;20940;-64
2022/07/20 08:33:18;;;;;;;4.47;2.40;;;;;;;25.06;48.33;98350.80;1745240;80;20970;-63
2022/07/20 08:35:45;;;;;;;5.08;2.50;;;;;;;25.11;49.19;98346.31;1767438;80;21097;-62
2022/07/20 08:38:12;;;;;;;5.75;2.70;;;;;;;25.15;46.76;98340.31;1776266;79;20999;-63
2022/07/20 08:40:41;;;;;;;3.80;2.60;;;;;;;25.14;47.92;98338.72;1743542;80;21522;-63
2022/07/20 08:43:08;;;;;;;5.92;2.70;;;;;;;25.15;48.32;98332.09;1757169;80;20932;-63
2022/07/20 08:45:35;;;;;;;4.78;2.45;;;;;;;25.18;48.39;98336.80;1758495;80;20931;-61
2022/07/20 08:48:08;;;;;;;6.53;2.67;;;;;;;25.26;48.37;98339.81;1806941;77;21215;-61
2022/07/20 08:50:35;;;;;;;3.42;2.42;;;;;;;25.34;47.48;98339.30;1746995;80;20997;-62
2022/07/20 08:53:01;;;;;;;5.12;2.40;;;;;;;25.35;47.61;98325.20;1731505;80;20860;-62
2022/07/20 08:55:29;;;;;;;5.22;2.60;;;;;;;25.39;48.50;98332.11;1736428;81;20882;-62
2022/07/20 08:57:56;;;;;;;4.00;2.50;;;;;;;25.46;47.87;98329.45;1744381;80;20910;-60
2022/07/20 09:00:28;;;;;;;5.87;2.72;;;;;;;25.49;47.64;98331.41;1719483;82;21120;-62
2022/07/20 09:03:03;;;;;;;3.75;2.60;;;;;;;25.55;46.91;98329.33;1717338;81;21019;-62
2022/07/20 09:05:33;;;;;;;8.03;3.03;;;;;;;25.64;48.14;98327.62;1754491;80;20974;-60
2022/07/20 09:08:00;;;;;;;4.83;2.70;;;;;;;25.75;47.41;98321.62;1748745;80;21517;-60
2022/07/20 09:10:31;;;;;;;9.88;3.20;;;;;;;25.83;47.27;98322.45;1717452;81;21631;-61
2022/07/20 09:13:13;;;;;;;4.28;2.70;;;;;;;25.89;47.38;98319.55;1804092;78;21035;-61
2022/07/20 09:15:48;;;;;;;5.85;3.05;;;;;;;25.93;47.42;98310.77;1808798;78;20825;-60
2022/07/20 09:18:23;;;;;;;3.52;2.72;;;;;;;26.04;45.92;98310.23;1804625;77;20919;-59
2022/07/20 09:20:56;;;;;;;4.25;2.90;;;;;;;26.06;45.90;98305.14;1808196;77;20988;-58
2022/07/20 09:23:31;;;;;;;4.97;2.90;;;;;;;26.05;45.97;98313.20;1814264;77;20943;-59
2022/07/20 09:26:16;;;;;;;7.30;3.02;;;;;;;26.09;45.66;98313.98;1816195;77;21217;-59
2022/07/20 09:28:47;;;;;;;7.53;2.87;;;;;;;26.14;45.84;98313.66;1804603;77;21438;-60
2022/07/20 09:31:33;;;;;;;7.03;3.08;;;;;;;26.16;45.74;98309.36;1798807;77;20966;-59
2022/07/20 09:34:05;;;;;;;3.08;2.75;;;;;;;26.21;46.81;98310.37;1815138;77;20932;-60
2022/07/20 09:36:37;;;;;;;4.80;3.00;;;;;;;26.33;45.70;98303.75;1797766;77;21012;-60
2022/07/20 09:39:11;;;;;;;6.70;3.10;;;;;;;26.39;46.22;98300.81;1827476;77;21026;-60
2022/07/20 09:41:43;;;;;;;5.03;2.60;;;;;;;26.44;46.37;98301.82;1804310;77;21012;-60
2022/07/20 09:44:12;;;;;;;6.50;3.45;;;;;;;26.53;46.95;98292.63;1815035;77;20962;-60
2022/07/20 09:46:39;;;;;;;3.58;3.00;;;;;;;26.63;45.04;98308.95;1805555;78;20987;-60
2022/07/20 09:49:11;;;;;;;4.45;3.10;;;;;;;26.64;44.91;98289.92;1752517;80;20955;-59
2022/07/20 09:51:42;;;;;;;5.30;2.90;;;;;;;26.59;43.72;98302.66;1760327;80;21110;-59
2022/07/20 09:54:15;;;;;;;4.80;2.83;;;;;;;26.55;43.87;98294.98;1733328;80;21427;-59
2022/07/20 09:56:47;;;;;;;5.87;2.83;;;;;;;26.51;44.20;98294.98;1754185;80;20988;-60
2022/07/20 09:59:15;;;;;;;6.92;3.12;;;;;;;26.53;44.89;98294.00;1757131;80;20950;-60
2022/07/20 10:01:46;;;;;;;4.35;3.20;;;;;;;26.59;44.22;98288.31;1729238;81;21040;-60
2022/07/20 10:04:13;;;;;;;5.60;3.00;;;;;;;26.69;45.67;98281.28;1742800;80;21486;-60
2022/07/20 10:06:43;;;;;;;5.55;3.25;;;;;;;26.67;45.30;98276.77;1773139;78;21503;-61
2022/07/20 10:09:14;;;;;;;6.50;3.17;;;;;;;26.53;45.97;98287.72;1762350;79;21490;-61
2022/07/20 10:11:42;;;;;;;9.83;3.65;;;;;;;26.40;46.36;98282.57;1746749;80;20984;-60
2022/07/20 10:14:11;;;;;;;4.15;3.08;;;;;;;26.32;46.43;98277.45;1762336;80;21079;-60
2022/07/20 10:16:50;;;;;;;4.30;2.80;;;;;;;26.30;47.29;98283.92;1740856;80;21105;-59
2022/07/20 10:19:16;;;;;;;5.72;3.12;;;;;;;26.40;48.32;98272.20;1738638;80;21072;-61
2022/07/20 10:21:49;;;;;;;5.37;3.20;;;;;;;26.43;46.38;98263.16;1815486;77;20912;-60
2022/07/20 10:24:33;;;;;;;6.83;3.37;;;;;;;26.39;45.68;98278.84;1784852;78;20979;-60
2022/07/20 10:27:15;;;;;;;6.25;3.30;;;;;;;26.35;46.66;98281.59;1795749;78;20936;-60
2022/07/20 10:29:47;;;;;;;7.17;3.10;;;;;;;26.36;47.02;98274.12;1750023;79;21116;-59
2022/07/20 10:32:28;;;;;;;7.70;3.65;;;;;;;26.24;47.54;98275.26;1807486;77;20944;-59
2022/07/20 10:35:26;;;;;;;7.25;2.90;;;;;;;26.23;47.83;98274.28;1797321;77;21038;-59
2022/07/20 10:37:55;;;;;;;5.45;2.95;;;;;;;26.30;46.79;98280.59;1813458;77;21001;-59
2022/07/20 10:40:25;;;;;;;9.23;2.50;;;;;;;26.41;47.63;98271.01;1795279;77;20927;-59
2022/07/20 10:43:16;;;;;;;7.22;2.55;;;;;;;26.56;45.58;98276.75;1762803;80;21653;-58
2022/07/20 10:45:43;;;;;;;5.25;2.22;;;;;;;26.67;44.75;98276.19;1722527;80;21007;-60
2022/07/20 10:48:15;;;;;;;3.47;2.08;;;;;;;26.75;43.09;98281.94;1764870;80;21529;-60
2022/07/20 10:50:50;;;;;;;6.67;2.20;;;;;;;26.78;42.69;98282.51;1753267;80;20992;-60
2022/07/20 10:53:26;;;;;;;3.70;2.05;;;;;;;26.81;42.71;98289.98;1812909;77;21070;-60
2022/07/20 10:55:55;;;;;;;3.22;1.90;;;;;;;26.79;41.76;98279.97;1807691;77;20934;-60
2022/07/20 10:58:25;;;;;;;5.00;2.02;;;;;;;26.78;41.83;98283.88;1795468;77;20970;-59
2022/07/20 11:01:06;;;;;;;4.55;2.12;;;;;;;26.76;42.06;98272.50;1803465;77;21516;-60
2022/07/20 11:03:42;;;;;;;10.30;2.10;;;;;;;26.80;43.13;98274.69;1751546;81;21041;-60
2022/07/20 11:06:16;;;;;;;6.28;2.00;;;;;;;26.94;43.79;98264.30;1797044;77;20840;-59
2022/07/20 11:08:49;;;;;;;2.45;1.80;;;;;;;26.99;40.82;98265.28;1790298;78;21777;-60
2022/07/20 11:11:23;;;;;;;5.35;1.80;;;;;;;26.98;41.11;98275.49;1801661;77;20995;-60
2022/07/20 11:13:51;;;;;;;2.98;1.95;;;;;;;26.94;40.53;98268.42;1816120;77;20915;-60
2022/07/20 11:16:21;;;;;;;5.37;1.82;;;;;;;26.87;40.92;98276.08;1798542;77;21011;-60
2022/07/20 11:18:50;;;;;;;4.42;1.70;;;;;;;26.81;42.50;98265.25;1816988;77;20880;-58
2022/07/20 11:21:17;;;;;;;3.10;1.45;;;;;;;26.81;40.74;98254.84;1815539;77;21101;-58
2022/07/20 11:23:49;;;;;;;2.58;1.40;;;;;;;26.81;41.89;98259.75;1770678;80;21017;-58
2022/07/20 11:26:19;;;;;;;6.40;1.50;;;;;;;26.89;42.12;98249.56;1813673;77;20937;-58
2022/07/20 11:28:50;;;;;;;3.35;1.50;;;;;;;27.03;41.87;98258.61;1807367;77;20935;-58
2022/07/20 11:31:20;;;;;;;5.30;1.35;;;;;;;27.12;40.06;98252.72;1791398;79;21394;-59
2022/07/20 11:33:48;;;;;;;2.60;1.40;;;;;;;27.19;41.51;98248.59;1802084;77;21184;-61
2022/07/20 11:36:20;;;;;;;3.75;1.30;;;;;;;27.34;38.64;98261.17;1795328;77;21546;-60
2022/07/20 11:38:54;;;;;;;8.35;1.40;;;;;;;27.38;37.35;98268.84;1766655;80;20920;-60
2022/07/20 11:41:26;;;;;;;6.20;1.40;;;;;;;27.33;38.02;98259.58;1760154;79;21113;-59
2022/07/20 11:43:52;;;;;;;4.35;1.52;;;;;;;27.31;39.25;98250.95;1801529;77;21576;-59
2022/07/20 11:46:22;;;;;;;4.22;1.70;;;;;;;27.44;38.86;98256.25;1748696;80;21178;-59
2022/07/20 11:48:58;;;;;;;2.98;1.60;;;;;;;27.62;38.90;98268.04;1740704;80;21423;-59
2022/07/20 11:51:26;;;;;;;3.27;1.70;;;;;;;27.75;39.44;98243.62;1755475;80;20964;-59
2022/07/20 11:53:52;;;;;;;4.83;1.80;;;;;;;27.93;38.50;98250.47;1754211;80;21435;-59
2022/07/20 11:56:22;;;;;;;4.05;1.72;;;;;;;27.98;39.23;98241.19;1747214;80;21840;-59